Colvin, New York
Current Conditions -  °F | °C
As of 7:54 AM on Saturday 25 Oct 2014 (Local Time) from KSYR Reporting Station
Overcast Overcast  
Wind Chill: 51°   Ceiling: 3300
Heat Index: 51°   Visibility: 8mi
Dew Point: 45°   Wind: 3mph
Humidity: 80%   Direction: 200°SSW
Pressure: 29.83"   Gusts: NA
Location:  43.0062°N, 76.1429°W
Report Text: KSYR 251154Z 20003KT 8SM FEW028 BKN033 OVC060 11/07 A2983 RMK AO2 SLP099 T01060072 10106 20078 56012
Loading
Personal Weather Stations






























Interactive Weather Map
Tropical Storm Tracking
New forecast layout! Learn more

10-Day Weather Forecast

Advertisements
Track Severe Weather on mobile